Terminal Aerodrome Forecast
Issued by NWS Sioux Falls, SD

Home | Current Version | Previous Version | Graphics & Text | Print | Product List | Glossary Off
Versions: 1 2 3 4 5 6 7 8 9 10 11 12 13 14 15 16

553
FTUS43 KFSD 231143
TAFHON
TAF
KHON 231143Z 2312/2412 VRB07KT P6SM VCTS BKN035CB
     FM231230 07007KT P6SM BKN060
     FM231500 16011KT P6SM SCT250
     FM231800 20011KT P6SM FEW040 SCT250
     FM232100 25012KT P6SM SCT060 BKN200
     FM232200 31014KT P6SM FEW040 SCT250
     FM240300 32008KT P6SM FEW250=

USA.gov is the U.S. government's official web portal to all federal, state and local government web resources and services.